sensor_id;sensor_type;location;lat;lon;timestamp;pressure;altitude;pressure_sealevel;temperature;humidity
67430;BME280;54298;52.076;5.264;2022-09-09T00:00:11;100695.0;;;16.72;81.8
67430;BME280;54298;52.076;5.264;2022-09-09T00:01:53;100701.0;;;16.66;82.11
67430;BME280;54298;52.076;5.264;2022-09-09T00:03:40;100688.0;;;16.7;81.77
67430;BME280;54298;52.076;5.264;2022-09-09T00:07:11;100690.0;;;16.66;82.28
67430;BME280;54298;52.076;5.264;2022-09-09T00:09:00;100694.0;;;16.64;82.23
67430;BME280;54298;52.076;5.264;2022-09-09T00:10:40;100693.0;;;16.66;81.83
67430;BME280;54298;52.076;5.264;2022-09-09T00:12:22;100690.0;;;16.68;81.88
67430;BME280;54298;52.076;5.264;2022-09-09T00:14:18;100685.0;;;16.62;82.14
67430;BME280;54298;52.076;5.264;2022-09-09T00:17:45;100688.0;;;16.61;81.95
67430;BME280;54298;52.076;5.264;2022-09-09T00:19:33;100684.0;;;16.57;82.07
67430;BME280;54298;52.076;5.264;2022-09-09T00:21:16;100682.0;;;16.63;81.89
67430;BME280;54298;52.076;5.264;2022-09-09T00:22:58;100683.0;;;16.52;82.3
67430;BME280;54298;52.076;5.264;2022-09-09T00:24:44;100683.0;;;16.43;82.82
67430;BME280;54298;52.076;5.264;2022-09-09T00:28:16;100686.0;;;16.43;82.69
67430;BME280;54298;52.076;5.264;2022-09-09T00:29:57;100682.0;;;16.53;82.12
67430;BME280;54298;52.076;5.264;2022-09-09T00:31:37;100676.0;;;16.41;82.35
67430;BME280;54298;52.076;5.264;2022-09-09T00:33:17;100680.0;;;16.45;82.07
67430;BME280;54298;52.076;5.264;2022-09-09T00:34:57;100680.0;;;16.45;82.05
67430;BME280;54298;52.076;5.264;2022-09-09T00:38:18;100676.0;;;16.38;81.94
67430;BME280;54298;52.076;5.264;2022-09-09T00:39:59;100676.0;;;16.29;82.36
67430;BME280;54298;52.076;5.264;2022-09-09T00:41:48;100675.0;;;16.31;82.25
67430;BME280;54298;52.076;5.264;2022-09-09T00:43:39;100676.0;;;16.29;82.22
67430;BME280;54298;52.076;5.264;2022-09-09T00:45:41;100670.0;;;16.2;82.79
67430;BME280;54298;52.076;5.264;2022-09-09T00:47:37;100676.0;;;16.2;82.78
67430;BME280;54298;52.076;5.264;2022-09-09T00:49:40;100677.0;;;16.2;82.71
67430;BME280;54298;52.076;5.264;2022-09-09T00:53:22;100680.0;;;16.18;82.71
67430;BME280;54298;52.076;5.264;2022-09-09T00:55:09;100676.0;;;16.23;82.37
67430;BME280;54298;52.076;5.264;2022-09-09T00:57:00;100678.0;;;16.21;82.35
67430;BME280;54298;52.076;5.264;2022-09-09T00:58:43;100683.0;;;16.04;82.91
67430;BME280;54298;52.076;5.264;2022-09-09T01:00:29;100682.0;;;16.2;82.43
67430;BME280;54298;52.076;5.264;2022-09-09T01:02:16;100683.0;;;16.14;82.56
67430;BME280;54298;52.076;5.264;2022-09-09T01:05:36;100689.0;;;16.07;83.13
67430;BME280;54298;52.076;5.264;2022-09-09T01:07:17;100689.0;;;15.96;83.2
67430;BME280;54298;52.076;5.264;2022-09-09T01:09:08;100683.0;;;16.11;82.74
67430;BME280;54298;52.076;5.264;2022-09-09T01:10:58;100680.0;;;16.03;82.69
67430;BME280;54298;52.076;5.264;2022-09-09T01:12:40;100680.0;;;15.98;83.37
67430;BME280;54298;52.076;5.264;2022-09-09T01:16:10;100677.0;;;15.98;83.28
67430;BME280;54298;52.076;5.264;2022-09-09T01:17:53;100675.0;;;15.98;83.13
67430;BME280;54298;52.076;5.264;2022-09-09T01:19:40;100677.0;;;15.99;83.01
67430;BME280;54298;52.076;5.264;2022-09-09T01:21:34;100675.0;;;15.84;83.36
67430;BME280;54298;52.076;5.264;2022-09-09T01:23:27;100675.0;;;15.84;83.24
67430;BME280;54298;52.076;5.264;2022-09-09T01:25:21;100670.0;;;15.77;83.7
67430;BME280;54298;52.076;5.264;2022-09-09T01:27:53;100669.0;;;15.79;83.64
67430;BME280;54298;52.076;5.264;2022-09-09T01:29:31;100663.0;;;15.74;83.65
67430;BME280;54298;52.076;5.264;2022-09-09T01:32:53;100667.0;;;15.74;83.53
67430;BME280;54298;52.076;5.264;2022-09-09T01:34:35;100671.0;;;15.7;83.77
67430;BME280;54298;52.076;5.264;2022-09-09T01:36:21;100666.0;;;15.69;83.84
67430;BME280;54298;52.076;5.264;2022-09-09T01:38:00;100668.0;;;15.71;83.67
67430;BME280;54298;52.076;5.264;2022-09-09T01:41:18;100667.0;;;15.78;83.33
67430;BME280;54298;52.076;5.264;2022-09-09T01:42:56;100668.0;;;15.69;83.59
67430;BME280;54298;52.076;5.264;2022-09-09T01:44:33;100672.0;;;15.7;83.34
67430;BME280;54298;52.076;5.264;2022-09-09T01:46:12;100678.0;;;15.7;83.45
67430;BME280;54298;52.076;5.264;2022-09-09T01:49:26;100671.0;;;15.68;83.66
67430;BME280;54298;52.076;5.264;2022-09-09T01:51:03;100670.0;;;15.62;83.65
67430;BME280;54298;52.076;5.264;2022-09-09T01:52:39;100664.0;;;15.56;83.75
67430;BME280;54298;52.076;5.264;2022-09-09T01:56:02;100660.0;;;15.56;83.9
67430;BME280;54298;52.076;5.264;2022-09-09T01:57:48;100660.0;;;15.55;83.69
67430;BME280;54298;52.076;5.264;2022-09-09T01:59:44;100655.0;;;15.58;83.83
67430;BME280;54298;52.076;5.264;2022-09-09T02:01:32;100657.0;;;15.66;83.34
67430;BME280;54298;52.076;5.264;2022-09-09T02:03:21;100653.0;;;15.58;83.4
67430;BME280;54298;52.076;5.264;2022-09-09T02:05:11;100641.0;;;15.42;83.51
67430;BME280;54298;52.076;5.264;2022-09-09T02:06:55;100645.0;;;15.44;83.9
67430;BME280;54298;52.076;5.264;2022-09-09T02:10:21;100648.0;;;15.41;83.87
67430;BME280;54298;52.076;5.264;2022-09-09T02:12:08;100639.0;;;15.43;83.72
67430;BME280;54298;52.076;5.264;2022-09-09T02:13:50;100640.0;;;15.52;83.5
67430;BME280;54298;52.076;5.264;2022-09-09T02:15:32;100632.0;;;15.5;83.15
67430;BME280;54298;52.076;5.264;2022-09-09T02:19:02;100634.0;;;15.43;83.5
67430;BME280;54298;52.076;5.264;2022-09-09T02:20:42;100634.0;;;15.41;83.36
67430;BME280;54298;52.076;5.264;2022-09-09T02:22:22;100634.0;;;15.47;83.08
67430;BME280;54298;52.076;5.264;2022-09-09T02:24:03;100636.0;;;15.39;83.16
67430;BME280;54298;52.076;5.264;2022-09-09T02:25:41;100643.0;;;15.38;83.17
67430;BME280;54298;52.076;5.264;2022-09-09T02:28:59;100643.0;;;15.4;83.15
67430;BME280;54298;52.076;5.264;2022-09-09T02:30:39;100640.0;;;15.45;82.89
67430;BME280;54298;52.076;5.264;2022-09-09T02:32:20;100638.0;;;15.42;83.11
67430;BME280;54298;52.076;5.264;2022-09-09T02:35:39;100641.0;;;15.35;83.22
67430;BME280;54298;52.076;5.264;2022-09-09T02:37:19;100639.0;;;15.24;83.52
67430;BME280;54298;52.076;5.264;2022-09-09T02:38:58;100644.0;;;15.25;83.85
67430;BME280;54298;52.076;5.264;2022-09-09T02:40:35;100640.0;;;15.29;83.73
67430;BME280;54298;52.076;5.264;2022-09-09T02:43:47;100636.0;;;15.2;83.81
67430;BME280;54298;52.076;5.264;2022-09-09T02:45:27;100638.0;;;15.21;83.9
67430;BME280;54298;52.076;5.264;2022-09-09T02:49:03;100633.0;;;15.3;83.62
67430;BME280;54298;52.076;5.264;2022-09-09T02:52:35;100634.0;;;15.21;83.9
67430;BME280;54298;52.076;5.264;2022-09-09T02:54:23;100633.0;;;15.24;83.74
67430;BME280;54298;52.076;5.264;2022-09-09T02:56:05;100630.0;;;15.18;83.98
67430;BME280;54298;52.076;5.264;2022-09-09T02:57:48;100631.0;;;15.26;83.64
67430;BME280;54298;52.076;5.264;2022-09-09T02:59:26;100625.0;;;15.19;83.64
67430;BME280;54298;52.076;5.264;2022-09-09T03:02:39;100623.0;;;15.31;83.28
67430;BME280;54298;52.076;5.264;2022-09-09T03:04:15;100630.0;;;15.32;83.15
67430;BME280;54298;52.076;5.264;2022-09-09T03:05:52;100630.0;;;15.2;83.51
67430;BME280;54298;52.076;5.264;2022-09-09T03:09:04;100631.0;;;15.24;83.41
67430;BME280;54298;52.076;5.264;2022-09-09T03:10:40;100628.0;;;15.25;83.42
67430;BME280;54298;52.076;5.264;2022-09-09T03:12:16;100630.0;;;15.15;84.08
67430;BME280;54298;52.076;5.264;2022-09-09T03:13:53;100630.0;;;15.09;84.16
67430;BME280;54298;52.076;5.264;2022-09-09T03:17:09;100626.0;;;15.18;83.93
67430;BME280;54298;52.076;5.264;2022-09-09T03:18:46;100617.0;;;15.2;83.73
67430;BME280;54298;52.076;5.264;2022-09-09T03:20:22;100619.0;;;15.2;83.69
67430;BME280;54298;52.076;5.264;2022-09-09T03:23:36;100622.0;;;15.25;83.32
67430;BME280;54298;52.076;5.264;2022-09-09T03:25:12;100625.0;;;15.04;84.07
67430;BME280;54298;52.076;5.264;2022-09-09T03:26:50;100625.0;;;15.03;84.35
67430;BME280;54298;52.076;5.264;2022-09-09T03:28:31;100622.0;;;15.1;84.08
67430;BME280;54298;52.076;5.264;2022-09-09T03:31:44;100623.0;;;15.1;83.95
67430;BME280;54298;52.076;5.264;2022-09-09T03:33:20;100626.0;;;15.1;84.2
67430;BME280;54298;52.076;5.264;2022-09-09T03:34:57;100623.0;;;15.18;83.85
67430;BME280;54298;52.076;5.264;2022-09-09T03:38:10;100623.0;;;15.13;84.09
67430;BME280;54298;52.076;5.264;2022-09-09T03:41:24;100621.0;;;14.83;85.22
67430;BME280;54298;52.076;5.264;2022-09-09T03:44:37;100617.0;;;15.08;84.44
67430;BME280;54298;52.076;5.264;2022-09-09T03:46:13;100615.0;;;15.05;84.53
67430;BME280;54298;52.076;5.264;2022-09-09T03:47:50;100615.0;;;15.12;84.13
67430;BME280;54298;52.076;5.264;2022-09-09T03:49:28;100617.0;;;15.08;84.31
67430;BME280;54298;52.076;5.264;2022-09-09T03:52:42;100618.0;;;15.15;84.02
67430;BME280;54298;52.076;5.264;2022-09-09T03:54:18;100617.0;;;15.11;84.15
67430;BME280;54298;52.076;5.264;2022-09-09T03:55:56;100616.0;;;14.97;84.65
67430;BME280;54298;52.076;5.264;2022-09-09T03:59:12;100617.0;;;15.05;84.57
67430;BME280;54298;52.076;5.264;2022-09-09T04:00:53;100619.0;;;15.15;83.92
67430;BME280;54298;52.076;5.264;2022-09-09T04:02:30;100615.0;;;15.13;84.15
67430;BME280;54298;52.076;5.264;2022-09-09T04:04:09;100613.0;;;14.98;84.52
67430;BME280;54298;52.076;5.264;2022-09-09T04:07:25;100613.0;;;15.09;84.55
67430;BME280;54298;52.076;5.264;2022-09-09T04:09:03;100613.0;;;15.07;84.43
67430;BME280;54298;52.076;5.264;2022-09-09T04:10:39;100615.0;;;14.92;85.1
67430;BME280;54298;52.076;5.264;2022-09-09T04:13:52;100610.0;;;15.13;84.47
67430;BME280;54298;52.076;5.264;2022-09-09T04:15:29;100605.0;;;15.13;84.27
67430;BME280;54298;52.076;5.264;2022-09-09T04:17:06;100606.0;;;15.1;84.19
67430;BME280;54298;52.076;5.264;2022-09-09T04:18:42;100602.0;;;15.2;83.86
67430;BME280;54298;52.076;5.264;2022-09-09T04:21:55;100603.0;;;15.18;83.85
67430;BME280;54298;52.076;5.264;2022-09-09T04:23:32;100602.0;;;15.18;84.19
67430;BME280;54298;52.076;5.264;2022-09-09T04:25:08;100605.0;;;15.22;84.19
67430;BME280;54298;52.076;5.264;2022-09-09T04:28:23;100605.0;;;15.23;84.17
67430;BME280;54298;52.076;5.264;2022-09-09T04:30:01;100597.0;;;15.15;84.6
67430;BME280;54298;52.076;5.264;2022-09-09T04:31:41;100598.0;;;15.16;84.6
67430;BME280;54298;52.076;5.264;2022-09-09T04:33:18;100599.0;;;15.26;83.95
67430;BME280;54298;52.076;5.264;2022-09-09T04:36:32;100597.0;;;15.23;84.14
67430;BME280;54298;52.076;5.264;2022-09-09T04:38:09;100592.0;;;15.13;84.29
67430;BME280;54298;52.076;5.264;2022-09-09T04:39:45;100587.0;;;14.98;84.79
67430;BME280;54298;52.076;5.264;2022-09-09T04:42:57;100591.0;;;15.04;84.98
67430;BME280;54298;52.076;5.264;2022-09-09T04:44:35;100586.0;;;15.15;84.25
67430;BME280;54298;52.076;5.264;2022-09-09T04:46:11;100588.0;;;15.11;84.42
67430;BME280;54298;52.076;5.264;2022-09-09T04:49:23;100585.0;;;15.15;84.1
67430;BME280;54298;52.076;5.264;2022-09-09T04:51:01;100586.0;;;15.11;83.92
67430;BME280;54298;52.076;5.264;2022-09-09T04:52:37;100587.0;;;14.94;84.34
67430;BME280;54298;52.076;5.264;2022-09-09T04:54:14;100589.0;;;15.11;84.1
67430;BME280;54298;52.076;5.264;2022-09-09T04:57:26;100590.0;;;15.1;84.02
67430;BME280;54298;52.076;5.264;2022-09-09T04:59:03;100585.0;;;15.05;84.52
67430;BME280;54298;52.076;5.264;2022-09-09T05:00:38;100587.0;;;14.98;84.77
67430;BME280;54298;52.076;5.264;2022-09-09T05:03:52;100591.0;;;15.17;84.08
67430;BME280;54298;52.076;5.264;2022-09-09T05:05:28;100585.0;;;15.14;84.17
67430;BME280;54298;52.076;5.264;2022-09-09T05:07:04;100588.0;;;15.17;84.15
67430;BME280;54298;52.076;5.264;2022-09-09T05:10:20;100588.0;;;15.08;84.21
67430;BME280;54298;52.076;5.264;2022-09-09T05:11:58;100583.0;;;15.1;84.27
67430;BME280;54298;52.076;5.264;2022-09-09T05:13:34;100582.0;;;15.15;84.23
67430;BME280;54298;52.076;5.264;2022-09-09T05:15:10;100582.0;;;15.15;84.34
67430;BME280;54298;52.076;5.264;2022-09-09T05:18:23;100582.0;;;15.15;84.35
67430;BME280;54298;52.076;5.264;2022-09-09T05:20:00;100584.0;;;15.13;84.31
67430;BME280;54298;52.076;5.264;2022-09-09T05:21:36;100578.0;;;15.17;84.22
67430;BME280;54298;52.076;5.264;2022-09-09T05:24:50;100580.0;;;15.13;84.45
67430;BME280;54298;52.076;5.264;2022-09-09T05:26:26;100577.0;;;15.11;84.62
67430;BME280;54298;52.076;5.264;2022-09-09T05:28:02;100572.0;;;15.15;84.53
67430;BME280;54298;52.076;5.264;2022-09-09T05:31:17;100578.0;;;15.17;84.69
67430;BME280;54298;52.076;5.264;2022-09-09T05:32:55;100586.0;;;15.13;84.98
67430;BME280;54298;52.076;5.264;2022-09-09T05:34:32;100583.0;;;15.15;84.79
67430;BME280;54298;52.076;5.264;2022-09-09T05:36:10;100578.0;;;15.18;84.79
67430;BME280;54298;52.076;5.264;2022-09-09T05:39:23;100570.0;;;15.17;84.53
67430;BME280;54298;52.076;5.264;2022-09-09T05:41:00;100570.0;;;15.16;84.87
67430;BME280;54298;52.076;5.264;2022-09-09T05:42:37;100569.0;;;15.18;84.84
67430;BME280;54298;52.076;5.264;2022-09-09T05:45:59;100568.0;;;15.03;85.7
67430;BME280;54298;52.076;5.264;2022-09-09T05:47:36;100566.0;;;15.2;85.23
67430;BME280;54298;52.076;5.264;2022-09-09T05:49:12;100570.0;;;15.16;85.55
67430;BME280;54298;52.076;5.264;2022-09-09T05:50:52;100575.0;;;15.16;85.94
67430;BME280;54298;52.076;5.264;2022-09-09T05:54:05;100583.0;;;15.17;85.84
67430;BME280;54298;52.076;5.264;2022-09-09T05:55:42;100583.0;;;15.27;85.86
67430;BME280;54298;52.076;5.264;2022-09-09T05:57:19;100588.0;;;15.3;85.88
67430;BME280;54298;52.076;5.264;2022-09-09T06:00:32;100588.0;;;15.38;85.8
67430;BME280;54298;52.076;5.264;2022-09-09T06:02:09;100594.0;;;15.4;85.62
67430;BME280;54298;52.076;5.264;2022-09-09T06:03:46;100590.0;;;15.46;85.6
67430;BME280;54298;52.076;5.264;2022-09-09T06:05:23;100585.0;;;15.44;85.82
67430;BME280;54298;52.076;5.264;2022-09-09T06:08:40;100591.0;;;15.48;85.95
67430;BME280;54298;52.076;5.264;2022-09-09T06:10:16;100587.0;;;15.47;86.32
67430;BME280;54298;52.076;5.264;2022-09-09T06:11:54;100590.0;;;15.63;85.58
67430;BME280;54298;52.076;5.264;2022-09-09T06:15:09;100587.0;;;15.76;84.96
67430;BME280;54298;52.076;5.264;2022-09-09T06:16:46;100586.0;;;15.69;85.46
67430;BME280;54298;52.076;5.264;2022-09-09T06:18:22;100587.0;;;15.7;85.55
67430;BME280;54298;52.076;5.264;2022-09-09T06:19:59;100585.0;;;15.79;85.19
67430;BME280;54298;52.076;5.264;2022-09-09T06:23:13;100586.0;;;15.62;85.59
67430;BME280;54298;52.076;5.264;2022-09-09T06:24:49;100584.0;;;15.83;85.15
67430;BME280;54298;52.076;5.264;2022-09-09T06:26:27;100583.0;;;15.76;85.54
67430;BME280;54298;52.076;5.264;2022-09-09T06:29:39;100588.0;;;15.87;85.53
67430;BME280;54298;52.076;5.264;2022-09-09T06:31:18;100582.0;;;15.83;86.23
67430;BME280;54298;52.076;5.264;2022-09-09T06:32:56;100584.0;;;15.96;85.7
67430;BME280;54298;52.076;5.264;2022-09-09T06:36:11;100578.0;;;16.02;85.67
67430;BME280;54298;52.076;5.264;2022-09-09T06:37:48;100575.0;;;16.12;85.48
67430;BME280;54298;52.076;5.264;2022-09-09T06:39:25;100575.0;;;16.11;85.76
67430;BME280;54298;52.076;5.264;2022-09-09T06:41:02;100569.0;;;16.0;86.44
67430;BME280;54298;52.076;5.264;2022-09-09T06:44:15;100569.0;;;16.09;86.2
67430;BME280;54298;52.076;5.264;2022-09-09T06:45:53;100570.0;;;16.22;85.53
67430;BME280;54298;52.076;5.264;2022-09-09T06:47:30;100568.0;;;16.2;85.4
67430;BME280;54298;52.076;5.264;2022-09-09T06:50:43;100569.0;;;16.32;85.49
67430;BME280;54298;52.076;5.264;2022-09-09T06:52:19;100563.0;;;16.31;85.49
67430;BME280;54298;52.076;5.264;2022-09-09T06:53:57;100570.0;;;16.32;85.36
67430;BME280;54298;52.076;5.264;2022-09-09T06:55:35;100565.0;;;16.25;85.75
67430;BME280;54298;52.076;5.264;2022-09-09T06:58:49;100565.0;;;16.31;85.31
67430;BME280;54298;52.076;5.264;2022-09-09T07:00:26;100567.0;;;16.41;84.8
67430;BME280;54298;52.076;5.264;2022-09-09T07:02:03;100568.0;;;16.27;85.42
67430;BME280;54298;52.076;5.264;2022-09-09T07:05:16;100572.0;;;16.39;85.49
67430;BME280;54298;52.076;5.264;2022-09-09T07:06:53;100582.0;;;16.54;85.25
67430;BME280;54298;52.076;5.264;2022-09-09T07:08:28;100567.0;;;16.54;84.44
67430;BME280;54298;52.076;5.264;2022-09-09T07:11:43;100571.0;;;16.59;84.29
67430;BME280;54298;52.076;5.264;2022-09-09T07:13:23;100573.0;;;16.59;83.75
67430;BME280;54298;52.076;5.264;2022-09-09T07:15:01;100566.0;;;16.87;82.96
67430;BME280;54298;52.076;5.264;2022-09-09T07:16:37;100564.0;;;16.79;82.49
67430;BME280;54298;52.076;5.264;2022-09-09T07:19:49;100565.0;;;16.86;82.26
67430;BME280;54298;52.076;5.264;2022-09-09T07:21:27;100566.0;;;17.0;81.86
67430;BME280;54298;52.076;5.264;2022-09-09T07:23:04;100567.0;;;17.02;81.5
67430;BME280;54298;52.076;5.264;2022-09-09T07:26:19;100569.0;;;17.0;81.45
67430;BME280;54298;52.076;5.264;2022-09-09T07:27:57;100570.0;;;17.0;81.83
67430;BME280;54298;52.076;5.264;2022-09-09T07:29:33;100572.0;;;17.16;81.58
67430;BME280;54298;52.076;5.264;2022-09-09T07:31:14;100566.0;;;17.11;81.69
67430;BME280;54298;52.076;5.264;2022-09-09T07:34:28;100560.0;;;17.36;80.61
67430;BME280;54298;52.076;5.264;2022-09-09T07:36:06;100566.0;;;17.43;80.38
67430;BME280;54298;52.076;5.264;2022-09-09T07:37:43;100565.0;;;17.46;79.88
67430;BME280;54298;52.076;5.264;2022-09-09T07:41:03;100565.0;;;17.61;79.61
67430;BME280;54298;52.076;5.264;2022-09-09T07:42:39;100570.0;;;17.75;79.11
67430;BME280;54298;52.076;5.264;2022-09-09T07:44:17;100586.0;;;17.89;78.74
67430;BME280;54298;52.076;5.264;2022-09-09T07:45:57;100593.0;;;17.59;78.58
67430;BME280;54298;52.076;5.264;2022-09-09T07:49:11;100583.0;;;17.68;78.11
67430;BME280;54298;52.076;5.264;2022-09-09T07:50:47;100584.0;;;17.8;77.74
67430;BME280;54298;52.076;5.264;2022-09-09T07:52:23;100583.0;;;17.66;77.33
67430;BME280;54298;52.076;5.264;2022-09-09T07:55:38;100583.0;;;17.56;77.48
67430;BME280;54298;52.076;5.264;2022-09-09T07:57:16;100589.0;;;17.7;77.37
67430;BME280;54298;52.076;5.264;2022-09-09T07:58:54;100591.0;;;17.75;77.38
67430;BME280;54298;52.076;5.264;2022-09-09T08:00:30;100587.0;;;17.61;77.41
67430;BME280;54298;52.076;5.264;2022-09-09T08:03:47;100587.0;;;17.5;77.66
67430;BME280;54298;52.076;5.264;2022-09-09T08:05:28;100589.0;;;17.59;77.72
67430;BME280;54298;52.076;5.264;2022-09-09T08:07:04;100588.0;;;17.88;76.84
67430;BME280;54298;52.076;5.264;2022-09-09T08:10:18;100585.0;;;17.8;76.69
67430;BME280;54298;52.076;5.264;2022-09-09T08:11:56;100585.0;;;17.86;75.72
67430;BME280;54298;52.076;5.264;2022-09-09T08:13:34;100585.0;;;17.7;76.2
67430;BME280;54298;52.076;5.264;2022-09-09T08:15:11;100587.0;;;17.77;76.27
67430;BME280;54298;52.076;5.264;2022-09-09T08:18:26;100586.0;;;17.72;75.8
67430;BME280;54298;52.076;5.264;2022-09-09T08:20:06;100587.0;;;17.59;76.52
67430;BME280;54298;52.076;5.264;2022-09-09T08:21:43;100589.0;;;17.68;76.05
67430;BME280;54298;52.076;5.264;2022-09-09T08:24:58;100591.0;;;17.52;76.39
67430;BME280;54298;52.076;5.264;2022-09-09T08:26:36;100590.0;;;17.75;76.3
67430;BME280;54298;52.076;5.264;2022-09-09T08:28:12;100592.0;;;17.63;76.23
67430;BME280;54298;52.076;5.264;2022-09-09T08:29:48;100592.0;;;17.81;75.97
67430;BME280;54298;52.076;5.264;2022-09-09T08:33:05;100597.0;;;17.71;75.92
67430;BME280;54298;52.076;5.264;2022-09-09T08:34:41;100599.0;;;17.93;75.23
67430;BME280;54298;52.076;5.264;2022-09-09T08:36:20;100591.0;;;17.95;75.17
67430;BME280;54298;52.076;5.264;2022-09-09T08:39:34;100597.0;;;17.96;74.59
67430;BME280;54298;52.076;5.264;2022-09-09T08:42:01;100595.0;;;17.97;74.92
67430;BME280;54298;52.076;5.264;2022-09-09T08:43:43;100597.0;;;18.03;74.74
67430;BME280;54298;52.076;5.264;2022-09-09T08:45:29;100595.0;;;18.02;74.37
67430;BME280;54298;52.076;5.264;2022-09-09T08:47:15;100603.0;;;18.14;74.3
67430;BME280;54298;52.076;5.264;2022-09-09T08:49:02;100606.0;;;18.12;74.05
67430;BME280;54298;52.076;5.264;2022-09-09T08:50:44;100608.0;;;18.05;73.94
67430;BME280;54298;52.076;5.264;2022-09-09T08:54:04;100606.0;;;18.05;74.16
67430;BME280;54298;52.076;5.264;2022-09-09T08:55:45;100607.0;;;18.09;74.3
67430;BME280;54298;52.076;5.264;2022-09-09T08:57:24;100605.0;;;17.93;74.7
67430;BME280;54298;52.076;5.264;2022-09-09T08:59:04;100602.0;;;18.03;74.45
67430;BME280;54298;52.076;5.264;2022-09-09T09:02:54;100603.0;;;17.88;74.83
67430;BME280;54298;52.076;5.264;2022-09-09T09:04:48;100612.0;;;17.95;74.77
67430;BME280;54298;52.076;5.264;2022-09-09T09:06:38;100609.0;;;18.11;74.09
67430;BME280;54298;52.076;5.264;2022-09-09T09:08:26;100610.0;;;18.02;74.08
67430;BME280;54298;52.076;5.264;2022-09-09T09:10:14;100614.0;;;18.06;73.99
67430;BME280;54298;52.076;5.264;2022-09-09T09:12:01;100608.0;;;18.25;73.83
67430;BME280;54298;52.076;5.264;2022-09-09T09:13:47;100614.0;;;18.21;73.44
67430;BME280;54298;52.076;5.264;2022-09-09T09:17:14;100611.0;;;18.29;73.3
67430;BME280;54298;52.076;5.264;2022-09-09T09:18:55;100612.0;;;18.13;73.45
67430;BME280;54298;52.076;5.264;2022-09-09T09:20:38;100613.0;;;18.18;73.72
67430;BME280;54298;52.076;5.264;2022-09-09T09:22:21;100609.0;;;18.16;74.02
67430;BME280;54298;52.076;5.264;2022-09-09T09:25:39;100615.0;;;18.14;73.8
67430;BME280;54298;52.076;5.264;2022-09-09T09:27:25;100617.0;;;18.0;74.23
67430;BME280;54298;52.076;5.264;2022-09-09T09:29:12;100620.0;;;18.09;74.14
67430;BME280;54298;52.076;5.264;2022-09-09T09:30:50;100619.0;;;18.12;73.94
67430;BME280;54298;52.076;5.264;2022-09-09T09:32:33;100622.0;;;18.09;73.67
67430;BME280;54298;52.076;5.264;2022-09-09T09:35:48;100616.0;;;18.11;73.73
67430;BME280;54298;52.076;5.264;2022-09-09T09:37:28;100621.0;;;17.91;73.87
67430;BME280;54298;52.076;5.264;2022-09-09T09:39:06;100617.0;;;18.18;73.61
67430;BME280;54298;52.076;5.264;2022-09-09T09:42:30;100622.0;;;18.02;73.95
67430;BME280;54298;52.076;5.264;2022-09-09T09:44:23;100630.0;;;17.88;75.49
67430;BME280;54298;52.076;5.264;2022-09-09T09:46:00;100633.0;;;17.97;76.02
67430;BME280;54298;52.076;5.264;2022-09-09T09:47:41;100628.0;;;17.93;77.44
67430;BME280;54298;52.076;5.264;2022-09-09T09:49:17;100626.0;;;17.93;77.2
67430;BME280;54298;52.076;5.264;2022-09-09T09:52:35;100625.0;;;17.7;78.22
67430;BME280;54298;52.076;5.264;2022-09-09T09:54:18;100625.0;;;18.02;77.38
67430;BME280;54298;52.076;5.264;2022-09-09T09:56:00;100622.0;;;18.18;77.23
67430;BME280;54298;52.076;5.264;2022-09-09T09:57:39;100620.0;;;18.25;76.94
67430;BME280;54298;52.076;5.264;2022-09-09T10:01:20;100619.0;;;18.0;77.31
67430;BME280;54298;52.076;5.264;2022-09-09T10:02:59;100616.0;;;17.84;77.61
67430;BME280;54298;52.076;5.264;2022-09-09T10:04:36;100615.0;;;17.88;77.66
67430;BME280;54298;52.076;5.264;2022-09-09T10:06:12;100614.0;;;18.02;77.58
67430;BME280;54298;52.076;5.264;2022-09-09T10:09:37;100613.0;;;18.04;77.62
67430;BME280;54298;52.076;5.264;2022-09-09T10:11:25;100616.0;;;17.91;77.62
67430;BME280;54298;52.076;5.264;2022-09-09T10:13:11;100612.0;;;17.93;77.08
67430;BME280;54298;52.076;5.264;2022-09-09T10:14:56;100610.0;;;17.86;76.94
67430;BME280;54298;52.076;5.264;2022-09-09T10:16:47;100616.0;;;17.75;77.23
67430;BME280;54298;52.076;5.264;2022-09-09T10:18:45;100624.0;;;17.86;77.45
67430;BME280;54298;52.076;5.264;2022-09-09T10:22:22;100628.0;;;17.63;78.58
67430;BME280;54298;52.076;5.264;2022-09-09T10:24:19;100622.0;;;17.59;79.87
67430;BME280;54298;52.076;5.264;2022-09-09T10:26:25;100627.0;;;17.57;79.38
67430;BME280;54298;52.076;5.264;2022-09-09T10:28:33;100630.0;;;17.68;79.83
67430;BME280;54298;52.076;5.264;2022-09-09T10:31:02;100634.0;;;17.59;80.3
67430;BME280;54298;52.076;5.264;2022-09-09T10:32:57;100630.0;;;17.66;80.41
67430;BME280;54298;52.076;5.264;2022-09-09T10:34:55;100631.0;;;17.57;80.99
67430;BME280;54298;52.076;5.264;2022-09-09T10:36:32;100623.0;;;17.41;81.74
67430;BME280;54298;52.076;5.264;2022-09-09T10:38:16;100626.0;;;17.5;81.39
67430;BME280;54298;52.076;5.264;2022-09-09T10:40:02;100626.0;;;17.64;81.41
67430;BME280;54298;52.076;5.264;2022-09-09T10:41:56;100622.0;;;17.54;81.44
67430;BME280;54298;52.076;5.264;2022-09-09T10:43:48;100620.0;;;17.39;82.31
67430;BME280;54298;52.076;5.264;2022-09-09T10:47:37;100617.0;;;17.61;82.96
67430;BME280;54298;52.076;5.264;2022-09-09T10:49:37;100612.0;;;17.73;82.84
67430;BME280;54298;52.076;5.264;2022-09-09T10:51:25;100617.0;;;17.77;82.64
67430;BME280;54298;52.076;5.264;2022-09-09T10:53:11;100618.0;;;17.78;82.59
67430;BME280;54298;52.076;5.264;2022-09-09T10:54:57;100607.0;;;18.07;82.07
67430;BME280;54298;52.076;5.264;2022-09-09T10:56:36;100613.0;;;18.03;81.7
67430;BME280;54298;52.076;5.264;2022-09-09T10:58:20;100611.0;;;18.09;80.27
67430;BME280;54298;52.076;5.264;2022-09-09T11:01:44;100610.0;;;18.02;80.41
67430;BME280;54298;52.076;5.264;2022-09-09T11:03:26;100612.0;;;18.0;80.59
67430;BME280;54298;52.076;5.264;2022-09-09T11:05:08;100616.0;;;18.27;80.05
67430;BME280;54298;52.076;5.264;2022-09-09T11:06:54;100609.0;;;18.38;78.91
67430;BME280;54298;52.076;5.264;2022-09-09T11:10:18;100606.0;;;18.2;79.72